Aviation Digital Data Service (ADDS)

Output produced by METARs form (0041 UTC 23 November 2014)
found at http://aviationweather.gov/adds/metars/
 
KLGA 222333Z 2300/2324 23012G18KT P6SM SCT050 BKN200 
     FM230100 23012KT P6SM SCT050 BKN100 WS020/26040KT 
     FM230600 23007KT P6SM BKN100 WS020/26040KT 
     FM231500 22010G16KT P6SM BKN100 
     FM231900 19008KT P6SM SCT060 BKN100